createdAt,value
2022-11-06T00:00:16.595Z,84.32
2022-11-06T00:00:39.031Z,78.85
2022-11-06T00:01:08.510Z,79.75
2022-11-06T00:01:30.903Z,82.65
2022-11-06T00:01:53.190Z,74.93
2022-11-06T00:02:20.473Z,78.10
2022-11-06T00:02:42.972Z,76.70
2022-11-06T00:03:05.594Z,78.40
2022-11-06T00:03:27.477Z,80.07
2022-11-06T00:03:52.229Z,82.05
2022-11-06T00:04:14.011Z,81.25
2022-11-06T00:04:35.779Z,73.80
2022-11-06T00:05:20.192Z,73.95
2022-11-06T00:06:01.257Z,80.78
2022-11-06T00:06:41.919Z,80.65
2022-11-06T00:07:04.212Z,79.93
2022-11-06T00:07:26.080Z,80.68
2022-11-06T00:07:48.709Z,80.40
2022-11-06T00:08:10.714Z,78.38
2022-11-06T00:08:38.547Z,81.53
2022-11-06T00:09:02.005Z,74.60
2022-11-06T00:09:23.790Z,76.70
2022-11-06T00:09:45.894Z,71.88
2022-11-06T00:10:07.920Z,74.07
2022-11-06T00:10:31.506Z,83.47
2022-11-06T00:10:53.289Z,81.40
2022-11-06T00:11:17.692Z,71.65
2022-11-06T00:11:40.510Z,78.00
2022-11-06T00:12:02.343Z,81.20
2022-11-06T00:12:24.578Z,76.72
2022-11-06T00:12:46.838Z,81.60
2022-11-06T00:13:08.982Z,80.95
2022-11-06T00:13:30.987Z,73.97
2022-11-06T00:13:52.771Z,76.95
2022-11-06T00:14:15.026Z,76.38
2022-11-06T00:14:36.774Z,78.72
2022-11-06T00:14:58.959Z,74.28
2022-11-06T00:15:21.123Z,77.43
2022-11-06T00:15:42.885Z,77.15
2022-11-06T00:16:06.509Z,79.72
2022-11-06T00:16:28.658Z,82.15
2022-11-06T00:16:50.446Z,90.30
2022-11-06T00:17:12.551Z,83.47
2022-11-06T00:17:34.705Z,77.68
2022-11-06T00:17:56.533Z,83.25
2022-11-06T00:18:18.526Z,81.72
2022-11-06T00:18:41.643Z,85.63
2022-11-06T00:19:03.652Z,87.20
2022-11-06T00:19:25.850Z,82.68
2022-11-06T00:19:47.985Z,80.60
2022-11-06T00:20:10.464Z,81.15
2022-11-06T00:20:32.666Z,85.38
2022-11-06T00:20:54.490Z,81.15
2022-11-06T00:21:22.479Z,79.75
2022-11-06T00:21:44.900Z,80.15
2022-11-06T00:22:06.784Z,82.50
2022-11-06T00:22:28.730Z,88.65
2022-11-06T00:22:50.470Z,81.95
2022-11-06T00:23:12.223Z,78.88
2022-11-06T00:23:34.192Z,78.50
2022-11-06T00:23:57.381Z,77.72
2022-11-06T00:24:19.154Z,74.55
2022-11-06T00:24:40.901Z,71.57
2022-11-06T00:25:03.319Z,80.60
2022-11-06T00:25:25.151Z,77.32
2022-11-06T00:25:47.357Z,74.65
2022-11-06T00:26:10.436Z,71.45
2022-11-06T00:26:33.721Z,72.93
2022-11-06T00:26:55.952Z,76.03
2022-11-06T00:27:17.738Z,72.57
2022-11-06T00:27:41.527Z,73.88
2022-11-06T00:28:03.242Z,76.38
2022-11-06T00:28:26.515Z,76.38
2022-11-06T00:28:48.888Z,82.65
2022-11-06T00:29:14.523Z,80.65
2022-11-06T00:29:36.640Z,68.65
2022-11-06T00:29:58.406Z,70.68
2022-11-06T00:30:20.890Z,78.35
2022-11-06T00:30:42.663Z,79.20
2022-11-06T00:31:10.380Z,72.87
2022-11-06T00:31:36.012Z,69.32
2022-11-06T00:31:57.704Z,62.88
2022-11-06T00:32:19.871Z,71.68
2022-11-06T00:32:42.076Z,78.20
2022-11-06T00:33:03.897Z,73.25
2022-11-06T00:33:25.989Z,71.45
2022-11-06T00:33:48.242Z,74.28
2022-11-06T00:34:11.149Z,69.72
2022-11-06T00:34:32.880Z,72.30
2022-11-06T00:34:54.668Z,69.72
2022-11-06T00:35:16.535Z,65.80
2022-11-06T00:35:39.967Z,70.03
2022-11-06T00:36:06.750Z,67.95
2022-11-06T00:36:32.711Z,63.38
2022-11-06T00:36:54.447Z,70.20
2022-11-06T00:37:16.148Z,70.80
2022-11-06T00:37:37.928Z,65.07
2022-11-06T00:37:59.831Z,68.13
2022-11-06T00:38:22.307Z,66.70
2022-11-06T00:38:44.699Z,68.97
2022-11-06T00:39:06.531Z,66.15
2022-11-06T00:39:28.284Z,63.42
2022-11-06T00:39:50.076Z,63.70
2022-11-06T00:40:12.746Z,64.85
2022-11-06T00:40:35.421Z,66.03
2022-11-06T00:40:57.709Z,68.28
2022-11-06T00:41:20.168Z,65.00
2022-11-06T00:41:42.314Z,60.60
2022-11-06T00:42:04.208Z,64.72
2022-11-06T00:42:26.329Z,68.03
2022-11-06T00:42:48.192Z,69.55
2022-11-06T00:43:10.269Z,61.78
2022-11-06T00:43:33.094Z,62.33
2022-11-06T00:43:58.461Z,67.75
2022-11-06T00:44:20.251Z,65.65
2022-11-06T00:44:42.024Z,66.93
2022-11-06T00:45:04.019Z,63.03
2022-11-06T00:45:26.187Z,61.72
2022-11-06T00:45:47.960Z,65.03
2022-11-06T00:46:12.223Z,66.25
2022-11-06T00:46:34.447Z,62.47
2022-11-06T00:46:56.629Z,62.15
2022-11-06T00:47:19.089Z,62.38
2022-11-06T00:47:41.229Z,61.42
2022-11-06T00:48:02.999Z,60.50
2022-11-06T00:48:24.707Z,64.88
2022-11-06T00:48:46.941Z,64.07
2022-11-06T00:49:08.789Z,58.75
2022-11-06T00:49:30.724Z,58.97
2022-11-06T00:49:53.586Z,59.17
2022-11-06T00:50:15.521Z,61.38
2022-11-06T00:50:37.683Z,63.45
2022-11-06T00:51:07.571Z,60.40
2022-11-06T00:51:35.889Z,56.22
2022-11-06T00:51:57.762Z,59.05
2022-11-06T00:52:19.498Z,58.20
2022-11-06T00:52:41.260Z,61.67
2022-11-06T00:53:03.126Z,59.40
2022-11-06T00:53:25.255Z,56.50
2022-11-06T00:53:47.711Z,61.80
2022-11-06T00:54:13.953Z,61.30
2022-11-06T00:54:35.756Z,62.90
2022-11-06T00:54:57.885Z,59.03
2022-11-06T00:55:19.615Z,58.88
2022-11-06T00:55:41.318Z,57.33
2022-11-06T00:56:06.694Z,61.30
2022-11-06T00:56:29.199Z,59.15
2022-11-06T00:56:50.934Z,60.95
2022-11-06T00:57:13.310Z,57.60
2022-11-06T00:57:35.125Z,57.17
2022-11-06T00:57:58.362Z,58.58
2022-11-06T00:58:20.203Z,58.50
2022-11-06T00:58:42.619Z,58.50
2022-11-06T00:59:06.796Z,57.00
2022-11-06T00:59:28.551Z,54.88
2022-11-06T00:59:50.664Z,52.78
2022-11-06T01:00:13.264Z,58.63
2022-11-06T01:00:35.015Z,60.75
2022-11-06T01:00:58.421Z,56.53
2022-11-06T01:01:41.179Z,53.38
2022-11-06T01:02:03.451Z,54.50
2022-11-06T01:02:25.778Z,53.00
2022-11-06T01:02:48.148Z,56.60
2022-11-06T01:03:10.171Z,59.37
2022-11-06T01:03:31.986Z,53.65
2022-11-06T01:03:59.465Z,54.22
2022-11-06T01:04:23.667Z,54.80
2022-11-06T01:04:45.909Z,53.75
2022-11-06T01:05:08.145Z,54.45
2022-11-06T01:05:29.981Z,56.85
2022-11-06T01:05:51.792Z,58.80
2022-11-06T01:06:18.524Z,57.83
2022-11-06T01:06:45.615Z,58.95
2022-11-06T01:07:07.353Z,55.53
2022-11-06T01:07:29.114Z,60.30
2022-11-06T01:07:51.246Z,59.08
2022-11-06T01:08:13.683Z,56.92
2022-11-06T01:08:36.505Z,57.42
2022-11-06T01:08:58.355Z,53.90
2022-11-06T01:09:23.046Z,56.15
2022-11-06T01:09:45.181Z,60.83
2022-11-06T01:10:08.009Z,58.80
2022-11-06T01:10:29.834Z,58.80
2022-11-06T01:10:51.607Z,59.53
2022-11-06T01:11:19.790Z,56.60
2022-11-06T01:12:11.932Z,55.35
2022-11-06T01:12:28.674Z,54.55
2022-11-06T01:12:50.443Z,56.30
2022-11-06T01:13:12.664Z,56.88
2022-11-06T01:13:34.548Z,54.53
2022-11-06T01:13:58.117Z,56.03
2022-11-06T01:14:21.435Z,54.40
2022-11-06T01:14:44.035Z,58.38
2022-11-06T01:15:06.505Z,55.55
2022-11-06T01:15:28.356Z,56.83
2022-11-06T01:15:50.500Z,54.78
2022-11-06T01:16:14.450Z,56.10
2022-11-06T01:16:39.600Z,58.35
2022-11-06T01:17:01.456Z,59.90
2022-11-06T01:17:23.620Z,57.58
2022-11-06T01:17:45.767Z,62.05
2022-11-06T01:18:07.517Z,58.13
2022-11-06T01:18:29.709Z,59.25
2022-11-06T01:18:52.288Z,56.60
2022-11-06T01:19:16.684Z,60.75
2022-11-06T01:19:38.912Z,53.42
2022-11-06T01:20:00.685Z,55.15
2022-11-06T01:20:22.559Z,55.55
2022-11-06T01:20:44.586Z,57.63
2022-11-06T01:21:08.138Z,59.15
2022-11-06T01:21:36.423Z,58.58
2022-11-06T01:21:58.177Z,60.83
2022-11-06T01:22:20.194Z,57.83
2022-11-06T01:22:41.945Z,57.80
2022-11-06T01:23:04.224Z,55.92
2022-11-06T01:23:25.990Z,58.72
2022-11-06T01:23:48.672Z,60.33
2022-11-06T01:24:13.313Z,58.42
2022-11-06T01:24:35.317Z,58.13
2022-11-06T01:24:57.368Z,65.22
2022-11-06T01:25:19.587Z,63.50
2022-11-06T01:25:41.343Z,61.40
2022-11-06T01:26:06.436Z,62.85
2022-11-06T01:26:38.187Z,63.35
2022-11-06T01:27:25.353Z,64.32
2022-11-06T01:27:47.196Z,61.88
2022-11-06T01:28:08.945Z,60.30
2022-11-06T01:28:31.139Z,58.60
2022-11-06T01:28:53.477Z,59.67
2022-11-06T01:29:17.423Z,59.90
2022-11-06T01:29:39.322Z,67.95
2022-11-06T01:30:01.442Z,60.10
2022-11-06T01:30:23.194Z,63.42
2022-11-06T01:30:44.921Z,60.25
2022-11-06T01:31:09.608Z,64.20
2022-11-06T01:31:33.066Z,64.10
2022-11-06T01:31:54.829Z,61.88
2022-11-06T01:32:16.944Z,61.10
2022-11-06T01:32:38.676Z,64.30
2022-11-06T01:33:00.409Z,65.85
2022-11-06T01:33:22.528Z,67.25
2022-11-06T01:33:45.111Z,66.55
2022-11-06T01:34:07.481Z,60.20
2022-11-06T01:34:29.702Z,65.45
2022-11-06T01:34:52.270Z,65.80
2022-11-06T01:35:14.142Z,65.25
2022-11-06T01:35:35.854Z,61.80
2022-11-06T01:35:57.649Z,64.03
2022-11-06T01:36:21.017Z,61.97
2022-11-06T01:36:43.140Z,64.10
2022-11-06T01:37:05.254Z,64.05
2022-11-06T01:37:26.958Z,62.35
2022-11-06T01:37:48.669Z,60.08
2022-11-06T01:38:10.623Z,61.28
2022-11-06T01:38:32.606Z,65.22
2022-11-06T01:38:56.921Z,60.75
2022-11-06T01:39:19.100Z,66.15
2022-11-06T01:39:40.852Z,64.30
2022-11-06T01:40:02.973Z,64.63
2022-11-06T01:40:24.733Z,65.10
2022-11-06T01:40:48.801Z,64.28
2022-11-06T01:41:15.632Z,61.42
2022-11-06T01:41:40.333Z,69.57
2022-11-06T01:42:02.436Z,61.50
2022-11-06T01:42:24.400Z,60.45
2022-11-06T01:42:46.146Z,66.93
2022-11-06T01:43:16.865Z,70.32
2022-11-06T01:43:44.752Z,68.13
2022-11-06T01:44:35.166Z,66.07
2022-11-06T01:45:20.139Z,72.95
2022-11-06T01:45:44.646Z,68.65
2022-11-06T01:46:07.030Z,64.70
2022-11-06T01:46:34.799Z,75.97
2022-11-06T01:46:56.569Z,64.00
2022-11-06T01:47:24.441Z,66.95
2022-11-06T01:47:46.684Z,68.07
2022-11-06T01:48:09.112Z,65.82
2022-11-06T01:48:30.880Z,67.47
2022-11-06T01:49:00.253Z,63.20
2022-11-06T01:49:22.050Z,67.13
2022-11-06T01:49:44.364Z,73.55
2022-11-06T01:50:09.042Z,74.00
2022-11-06T01:50:31.438Z,67.22
2022-11-06T01:50:57.934Z,62.50
2022-11-06T01:51:21.821Z,66.75
2022-11-06T01:51:51.430Z,74.38
2022-11-06T01:52:14.837Z,61.50
2022-11-06T01:52:37.320Z,66.97
2022-11-06T01:53:02.825Z,65.20
2022-11-06T01:53:25.993Z,71.05
2022-11-06T01:53:48.130Z,62.65
2022-11-06T01:54:12.071Z,64.45
2022-11-06T01:54:36.613Z,69.18
2022-11-06T01:55:08.495Z,65.80
2022-11-06T01:55:35.866Z,72.22
2022-11-06T01:56:01.248Z,71.95
2022-11-06T01:56:23.585Z,66.22
2022-11-06T01:56:47.168Z,71.25
2022-11-06T01:57:10.581Z,67.88
2022-11-06T01:57:32.314Z,65.47
2022-11-06T01:57:55.753Z,64.63
2022-11-06T01:58:21.381Z,76.35
2022-11-06T01:58:45.983Z,66.38
2022-11-06T01:59:09.988Z,67.22
2022-11-06T01:59:33.357Z,67.20
2022-11-06T01:59:55.886Z,67.95
2022-11-06T02:00:19.965Z,70.05
2022-11-06T02:00:42.393Z,64.30
2022-11-06T02:01:04.871Z,63.08
2022-11-06T02:01:27.088Z,65.95
2022-11-06T02:01:50.480Z,67.35
2022-11-06T02:02:14.812Z,63.38
2022-11-06T02:02:38.191Z,62.50
2022-11-06T02:03:00.602Z,63.53
2022-11-06T02:03:23.425Z,65.22
2022-11-06T02:04:07.848Z,63.53
2022-11-06T02:04:34.470Z,67.22
2022-11-06T02:04:56.652Z,62.92
2022-11-06T02:05:18.903Z,62.35
2022-11-06T02:05:41.827Z,65.40
2022-11-06T02:06:07.441Z,61.65
2022-11-06T02:06:29.801Z,62.25
2022-11-06T02:06:52.009Z,60.05
2022-11-06T02:07:14.098Z,67.65
2022-11-06T02:07:36.619Z,66.38
2022-11-06T02:08:00.953Z,64.90
2022-11-06T02:08:23.218Z,59.22
2022-11-06T02:08:45.038Z,68.22
2022-11-06T02:09:12.237Z,60.90
2022-11-06T02:09:35.024Z,61.22
2022-11-06T02:09:56.782Z,65.00
2022-11-06T02:10:18.600Z,62.42
2022-11-06T02:10:41.880Z,59.08
2022-11-06T02:11:03.773Z,66.55
2022-11-06T02:11:25.571Z,64.38
2022-11-06T02:12:00.612Z,58.13
2022-11-06T02:12:34.255Z,64.95
2022-11-06T02:13:11.833Z,63.25
2022-11-06T02:13:54.939Z,62.78
2022-11-06T02:14:51.001Z,58.33
2022-11-06T02:15:21.166Z,59.97
2022-11-06T02:16:09.726Z,60.60
2022-11-06T02:16:42.297Z,56.30
2022-11-06T02:17:22.894Z,65.15
2022-11-06T02:18:06.238Z,61.90
2022-11-06T02:18:39.934Z,60.47
2022-11-06T02:19:20.854Z,61.90
2022-11-06T02:19:54.592Z,62.40
2022-11-06T02:20:36.547Z,59.42
2022-11-06T02:21:26.473Z,57.30
2022-11-06T02:22:03.032Z,59.33
2022-11-06T02:22:31.279Z,58.58
2022-11-06T02:23:30.399Z,61.78
2022-11-06T02:24:11.376Z,56.28
2022-11-06T02:24:48.775Z,60.03
2022-11-06T02:25:42.096Z,61.47
2022-11-06T02:26:15.848Z,59.42
2022-11-06T02:27:02.968Z,59.22
2022-11-06T02:27:26.899Z,68.05
2022-11-06T02:27:55.165Z,59.92
2022-11-06T02:28:29.855Z,62.40
2022-11-06T02:28:54.025Z,60.17
2022-11-06T02:29:28.751Z,59.88
2022-11-06T02:30:10.670Z,57.05
2022-11-06T02:30:41.197Z,60.60
2022-11-06T02:31:06.413Z,55.08
2022-11-06T02:31:34.477Z,60.42
2022-11-06T02:31:59.309Z,56.15
2022-11-06T02:32:39.966Z,58.63
2022-11-06T02:33:10.565Z,56.95
2022-11-06T02:33:41.048Z,60.60
2022-11-06T02:34:11.652Z,59.08
2022-11-06T02:34:39.394Z,62.65
2022-11-06T02:35:06.074Z,56.80
2022-11-06T02:35:33.431Z,56.38
2022-11-06T02:36:06.233Z,60.85
2022-11-06T02:36:33.431Z,59.45
2022-11-06T02:37:04.004Z,57.75
2022-11-06T02:37:31.277Z,58.47
2022-11-06T02:37:58.578Z,59.38
2022-11-06T02:38:28.275Z,50.63
2022-11-06T02:38:58.820Z,59.78
2022-11-06T02:39:24.394Z,60.60
2022-11-06T02:39:48.564Z,58.03
2022-11-06T02:40:12.961Z,52.05
2022-11-06T02:40:39.406Z,60.63
2022-11-06T02:41:06.647Z,56.10
2022-11-06T02:41:38.517Z,53.83
2022-11-06T02:42:02.298Z,56.00
2022-11-06T02:42:27.219Z,55.42
2022-11-06T02:42:51.691Z,54.88
2022-11-06T02:43:16.128Z,55.40
2022-11-06T02:43:40.144Z,54.33
2022-11-06T02:44:06.022Z,55.72
2022-11-06T02:44:32.132Z,59.78
2022-11-06T02:44:57.260Z,54.33
2022-11-06T02:45:20.157Z,53.60
2022-11-06T02:46:26.912Z,52.50
2022-11-06T02:46:55.313Z,57.15
2022-11-06T02:47:19.166Z,55.17
2022-11-06T02:47:43.096Z,51.63
2022-11-06T02:48:09.124Z,54.80
2022-11-06T02:48:37.407Z,56.05
2022-11-06T02:49:07.977Z,51.90
2022-11-06T02:49:50.033Z,53.60
2022-11-06T02:50:25.802Z,49.28
2022-11-06T02:50:50.437Z,49.00
2022-11-06T02:51:16.432Z,48.78
2022-11-06T02:51:44.094Z,50.70
2022-11-06T02:52:11.469Z,51.42
2022-11-06T02:52:37.671Z,51.28
2022-11-06T02:53:04.845Z,48.42
2022-11-06T02:53:27.832Z,49.75
2022-11-06T02:53:50.287Z,46.40
2022-11-06T02:54:14.397Z,50.17
2022-11-06T02:54:40.383Z,51.60
2022-11-06T02:55:11.697Z,47.67
2022-11-06T02:55:40.581Z,49.92
2022-11-06T02:56:20.109Z,53.75
2022-11-06T02:56:45.738Z,49.60
2022-11-06T02:57:11.538Z,47.70
2022-11-06T02:57:36.279Z,46.22
2022-11-06T02:58:04.041Z,49.17
2022-11-06T02:58:49.037Z,51.13
2022-11-06T02:59:11.414Z,46.33
2022-11-06T02:59:39.239Z,45.22
2022-11-06T03:00:19.330Z,46.50
2022-11-06T03:00:46.564Z,46.95
2022-11-06T03:01:16.057Z,47.67
2022-11-06T03:01:45.136Z,48.92
2022-11-06T03:02:10.722Z,45.67
2022-11-06T03:02:46.875Z,45.45
2022-11-06T03:03:23.367Z,44.58
2022-11-06T03:03:49.314Z,42.28
2022-11-06T03:04:23.285Z,41.67
2022-11-06T03:04:55.001Z,46.70
2022-11-06T03:05:23.811Z,44.75
2022-11-06T03:05:45.916Z,46.17
2022-11-06T03:06:11.462Z,44.25
2022-11-06T03:06:38.407Z,42.70
2022-11-06T03:07:30.886Z,40.40
2022-11-06T03:08:09.378Z,42.42
2022-11-06T03:08:44.459Z,44.60
2022-11-06T03:09:29.149Z,41.85
2022-11-06T03:09:51.251Z,45.85
2022-11-06T03:10:13.426Z,42.90
2022-11-06T03:11:13.883Z,45.35
2022-11-06T03:11:39.011Z,42.45
2022-11-06T03:12:32.917Z,43.45
2022-11-06T03:13:07.330Z,48.92
2022-11-06T03:13:39.407Z,44.67
2022-11-06T03:14:08.459Z,43.47
2022-11-06T03:14:45.500Z,42.43
2022-11-06T03:15:30.605Z,46.72
2022-11-06T03:16:27.176Z,42.10
2022-11-06T03:17:11.888Z,43.50
2022-11-06T03:17:56.827Z,41.17
2022-11-06T03:18:35.596Z,43.15
2022-11-06T03:19:26.338Z,42.83
2022-11-06T03:20:14.097Z,40.70
2022-11-06T03:20:40.405Z,41.63
2022-11-06T03:21:12.206Z,40.88
2022-11-06T03:21:54.589Z,41.72
2022-11-06T03:22:34.023Z,41.03
2022-11-06T03:23:10.178Z,43.97
2022-11-06T03:23:41.971Z,42.08
2022-11-06T03:24:29.789Z,41.10
2022-11-06T03:25:15.497Z,46.55
2022-11-06T03:25:44.758Z,40.47
2022-11-06T03:26:23.497Z,40.30
2022-11-06T03:26:50.125Z,45.70
2022-11-06T03:27:20.538Z,40.95
2022-11-06T03:28:00.176Z,44.78
2022-11-06T03:28:34.576Z,43.10
2022-11-06T03:29:15.018Z,41.00
2022-11-06T03:29:39.761Z,41.42
2022-11-06T03:30:16.312Z,40.20
2022-11-06T03:30:49.526Z,41.47
2022-11-06T03:31:17.722Z,42.03
2022-11-06T03:31:50.544Z,41.53
2022-11-06T03:32:41.474Z,39.42
2022-11-06T03:33:35.467Z,41.90
2022-11-06T03:34:07.282Z,39.72
2022-11-06T03:34:44.406Z,41.63
2022-11-06T03:35:29.448Z,44.22
2022-11-06T03:35:53.841Z,43.03
2022-11-06T03:36:27.790Z,41.20
2022-11-06T03:36:52.917Z,42.35
2022-11-06T03:37:22.957Z,42.40
2022-11-06T03:37:51.070Z,42.65
2022-11-06T03:38:32.366Z,39.88
2022-11-06T03:39:00.431Z,39.97
2022-11-06T03:39:27.818Z,42.33
2022-11-06T03:39:53.432Z,40.47
2022-11-06T03:40:19.781Z,42.22
2022-11-06T03:40:47.748Z,41.55
2022-11-06T03:41:14.880Z,41.58
2022-11-06T03:41:49.805Z,42.80
2022-11-06T03:42:15.631Z,41.33
2022-11-06T03:42:39.997Z,43.45
2022-11-06T03:43:06.979Z,42.13
2022-11-06T03:43:34.785Z,48.57
2022-11-06T03:44:00.675Z,44.75
2022-11-06T03:44:27.312Z,42.22
2022-11-06T03:44:53.470Z,43.35
2022-11-06T03:45:20.284Z,44.88
2022-11-06T03:45:44.186Z,43.08
2022-11-06T03:46:10.228Z,43.72
2022-11-06T03:46:33.450Z,45.22
2022-11-06T03:47:20.668Z,42.75
2022-11-06T03:48:05.497Z,44.20
2022-11-06T03:49:07.244Z,40.80
2022-11-06T03:49:52.211Z,41.85
2022-11-06T03:50:40.817Z,41.63
2022-11-06T03:51:14.160Z,42.28
2022-11-06T03:51:53.109Z,42.00
2022-11-06T03:52:30.623Z,40.83
2022-11-06T03:53:15.508Z,43.67
2022-11-06T03:53:42.100Z,45.30
2022-11-06T03:54:10.619Z,42.65
2022-11-06T03:54:55.156Z,40.40
2022-11-06T03:55:22.106Z,41.10
2022-11-06T03:55:49.499Z,43.00
2022-11-06T03:56:22.124Z,45.70
2022-11-06T03:56:50.869Z,41.78
2022-11-06T03:57:23.654Z,39.38
2022-11-06T03:57:55.986Z,44.97
2022-11-06T03:58:21.123Z,38.97
2022-11-06T03:58:46.688Z,42.45
2022-11-06T03:59:11.876Z,40.30
2022-11-06T03:59:39.665Z,38.97
2022-11-06T04:00:03.900Z,38.60
2022-11-06T04:00:25.686Z,39.75
2022-11-06T04:00:49.543Z,41.67
2022-11-06T04:01:13.718Z,40.42
2022-11-06T04:01:37.858Z,41.17
2022-11-06T04:02:02.116Z,42.08
2022-11-06T04:02:26.389Z,44.08
2022-11-06T04:03:16.097Z,38.92
2022-11-06T04:03:40.457Z,42.40
2022-11-06T04:04:04.979Z,44.22
2022-11-06T04:04:34.356Z,45.25
2022-11-06T04:05:00.471Z,42.28
2022-11-06T04:05:24.598Z,39.47
2022-11-06T04:05:49.921Z,43.53
2022-11-06T04:06:28.872Z,41.17
2022-11-06T04:07:08.112Z,39.63
2022-11-06T04:07:35.854Z,41.55
2022-11-06T04:08:16.532Z,41.25
2022-11-06T04:08:58.685Z,43.97
2022-11-06T04:09:41.160Z,38.85
2022-11-06T04:10:26.179Z,41.55
2022-11-06T04:11:09.815Z,41.75
2022-11-06T04:11:54.472Z,42.78
2022-11-06T04:12:41.477Z,39.38
2022-11-06T04:13:21.629Z,41.55
2022-11-06T04:14:01.989Z,41.50
2022-11-06T04:14:27.114Z,43.42
2022-11-06T04:14:54.265Z,40.08
2022-11-06T04:15:19.561Z,40.47
2022-11-06T04:15:51.969Z,40.88
2022-11-06T04:16:14.560Z,43.33
2022-11-06T04:16:41.333Z,43.97
2022-11-06T04:17:05.568Z,41.55
2022-11-06T04:17:29.814Z,43.75
2022-11-06T04:17:52.052Z,37.33
2022-11-06T04:18:17.203Z,38.95
2022-11-06T04:18:39.309Z,39.78
2022-11-06T04:19:01.726Z,38.72
2022-11-06T04:19:24.009Z,37.97
2022-11-06T04:19:55.360Z,37.85
2022-11-06T04:20:40.734Z,41.38
2022-11-06T04:21:38.829Z,41.60
2022-11-06T04:22:00.947Z,40.83
2022-11-06T04:22:41.477Z,41.72
2022-11-06T04:23:20.648Z,38.20
2022-11-06T04:24:26.279Z,43.92
2022-11-06T04:25:21.111Z,38.92
2022-11-06T04:26:23.680Z,42.20
2022-11-06T04:27:01.288Z,40.58
2022-11-06T04:27:43.675Z,43.30
2022-11-06T04:28:28.536Z,37.10
2022-11-06T04:29:12.637Z,38.88
2022-11-06T04:29:43.703Z,42.22
2022-11-06T04:30:14.547Z,41.58
2022-11-06T04:31:02.983Z,41.58
2022-11-06T04:31:44.057Z,36.58
2022-11-06T04:32:32.074Z,39.30
2022-11-06T04:33:07.344Z,39.45
2022-11-06T04:33:49.275Z,43.15
2022-11-06T04:34:21.604Z,39.35
2022-11-06T04:34:52.754Z,39.28
2022-11-06T04:35:35.114Z,39.80
2022-11-06T04:36:05.869Z,40.38
2022-11-06T04:36:39.420Z,39.40
2022-11-06T04:37:15.249Z,39.05
2022-11-06T04:37:42.889Z,41.33
2022-11-06T04:38:23.236Z,39.50
2022-11-06T04:38:59.630Z,41.25
2022-11-06T04:39:30.196Z,36.75
2022-11-06T04:40:06.042Z,40.95
2022-11-06T04:40:58.477Z,37.17
2022-11-06T04:41:47.530Z,42.25
2022-11-06T04:42:15.825Z,42.33
2022-11-06T04:42:43.889Z,39.63
2022-11-06T04:43:08.819Z,44.30
2022-11-06T04:43:35.461Z,40.35
2022-11-06T04:44:19.165Z,37.42
2022-11-06T04:44:49.573Z,40.22
2022-11-06T04:45:28.819Z,37.88
2022-11-06T04:45:54.259Z,41.20
2022-11-06T04:46:25.752Z,37.42
2022-11-06T04:46:56.924Z,39.08
2022-11-06T04:47:23.494Z,40.70
2022-11-06T04:47:47.192Z,40.38
2022-11-06T04:48:10.016Z,37.40
2022-11-06T04:48:32.564Z,37.97
2022-11-06T04:48:54.997Z,37.70
2022-11-06T04:49:18.502Z,38.65
2022-11-06T04:49:43.226Z,37.10
2022-11-06T04:50:06.724Z,37.58
2022-11-06T04:50:30.800Z,38.53
2022-11-06T04:50:56.563Z,40.05
2022-11-06T04:51:22.145Z,40.53
2022-11-06T04:51:45.983Z,37.78
2022-11-06T04:52:11.121Z,36.17
2022-11-06T04:52:34.173Z,37.28
2022-11-06T04:52:57.065Z,34.83
2022-11-06T04:53:21.145Z,40.30
2022-11-06T04:53:43.974Z,40.15
2022-11-06T04:54:09.006Z,39.83
2022-11-06T04:54:32.205Z,38.85
2022-11-06T04:54:56.057Z,38.88
2022-11-06T04:55:18.273Z,37.28
2022-11-06T04:55:50.934Z,39.90
2022-11-06T04:56:21.520Z,38.58
2022-11-06T04:56:46.318Z,40.25
2022-11-06T04:57:08.557Z,37.63
2022-11-06T04:57:31.815Z,41.53
2022-11-06T04:57:53.624Z,40.50
2022-11-06T04:58:16.930Z,38.08
2022-11-06T04:58:38.784Z,39.20
2022-11-06T04:59:00.540Z,39.25
2022-11-06T04:59:22.316Z,42.08
2022-11-06T04:59:44.117Z,39.00
2022-11-06T05:00:06.500Z,38.95
2022-11-06T05:00:28.247Z,37.05
2022-11-06T05:00:51.661Z,38.67
2022-11-06T05:01:14.003Z,37.70
2022-11-06T05:01:35.951Z,40.72
2022-11-06T05:01:57.948Z,37.40
2022-11-06T05:02:19.778Z,41.85
2022-11-06T05:02:41.971Z,39.30
2022-11-06T05:03:03.737Z,39.55
2022-11-06T05:03:25.453Z,38.28
2022-11-06T05:03:47.587Z,36.72
2022-11-06T05:04:10.909Z,39.80
2022-11-06T05:04:33.805Z,41.30
2022-11-06T05:04:55.588Z,44.45
2022-11-06T05:05:17.415Z,42.83
2022-11-06T05:05:39.269Z,40.03
2022-11-06T05:06:01.199Z,37.30
2022-11-06T05:06:28.662Z,38.13
2022-11-06T05:06:51.774Z,38.13
2022-11-06T05:07:14.832Z,40.85
2022-11-06T05:07:36.791Z,41.55
2022-11-06T05:07:58.960Z,41.72
2022-11-06T05:08:21.314Z,39.38
2022-11-06T05:08:43.106Z,39.80
2022-11-06T05:09:04.887Z,40.28
2022-11-06T05:09:26.996Z,41.50
2022-11-06T05:09:48.916Z,40.75
2022-11-06T05:10:11.106Z,40.92
2022-11-06T05:10:32.984Z,42.38
2022-11-06T05:10:54.827Z,39.70
2022-11-06T05:11:16.573Z,39.03
2022-11-06T05:11:38.824Z,40.97
2022-11-06T05:12:00.940Z,36.63
2022-11-06T05:12:23.177Z,37.28
2022-11-06T05:12:47.198Z,40.17
2022-11-06T05:13:09.483Z,41.63
2022-11-06T05:13:31.242Z,38.78
2022-11-06T05:13:53.017Z,38.95
2022-11-06T05:14:14.808Z,41.28
2022-11-06T05:14:36.550Z,39.67
2022-11-06T05:14:58.402Z,38.55
2022-11-06T05:15:20.179Z,40.72
2022-11-06T05:15:42.710Z,41.70
2022-11-06T05:16:05.021Z,39.17
2022-11-06T05:16:26.790Z,39.40
2022-11-06T05:16:48.869Z,41.22
2022-11-06T05:17:11.093Z,37.83
2022-11-06T05:17:36.462Z,38.10
2022-11-06T05:17:59.195Z,41.78
2022-11-06T05:18:21.005Z,40.53
2022-11-06T05:18:42.861Z,41.15
2022-11-06T05:19:04.813Z,39.22
2022-11-06T05:19:26.676Z,41.20
2022-11-06T05:19:48.424Z,43.50
2022-11-06T05:20:10.499Z,38.92
2022-11-06T05:20:32.577Z,39.67
2022-11-06T05:21:17.525Z,47.03
2022-11-06T05:21:57.848Z,41.35
2022-11-06T05:22:38.418Z,39.00
2022-11-06T05:23:00.825Z,37.78
2022-11-06T05:23:23.201Z,40.13
2022-11-06T05:23:44.941Z,41.80
2022-11-06T05:24:07.389Z,42.85
2022-11-06T05:24:29.171Z,41.60
2022-11-06T05:24:51.154Z,41.45
2022-11-06T05:25:12.905Z,40.55
2022-11-06T05:25:36.064Z,40.38
2022-11-06T05:25:57.807Z,41.42
2022-11-06T05:26:19.529Z,44.78
2022-11-06T05:26:41.721Z,43.03
2022-11-06T05:27:03.481Z,41.13
2022-11-06T05:27:25.600Z,39.95
2022-11-06T05:27:47.370Z,39.83
2022-11-06T05:28:09.625Z,41.35
2022-11-06T05:28:31.591Z,42.20
2022-11-06T05:28:53.301Z,36.83
2022-11-06T05:29:15.252Z,37.30
2022-11-06T05:29:37.014Z,40.13
2022-11-06T05:29:58.723Z,41.83
2022-11-06T05:30:20.842Z,38.72
2022-11-06T05:30:43.814Z,35.83
2022-11-06T05:31:05.918Z,40.25
2022-11-06T05:31:27.994Z,38.55
2022-11-06T05:31:49.723Z,37.53
2022-11-06T05:32:11.498Z,37.20
2022-11-06T05:32:33.652Z,39.70
2022-11-06T05:32:55.394Z,35.97
2022-11-06T05:33:17.299Z,35.95
2022-11-06T05:33:39.263Z,36.25
2022-11-06T05:34:01.082Z,36.67
2022-11-06T05:34:22.825Z,35.88
2022-11-06T05:34:45.964Z,39.20
2022-11-06T05:35:08.211Z,39.42
2022-11-06T05:35:30.209Z,37.05
2022-11-06T05:35:52.789Z,36.08
2022-11-06T05:36:14.535Z,35.47
2022-11-06T05:36:36.308Z,37.25
2022-11-06T05:36:58.528Z,34.13
2022-11-06T05:37:20.700Z,33.55
2022-11-06T05:37:42.596Z,33.40
2022-11-06T05:38:04.396Z,38.85
2022-11-06T05:38:26.134Z,37.53
2022-11-06T05:38:47.845Z,36.88
2022-11-06T05:39:10.030Z,38.35
2022-11-06T05:39:31.860Z,36.70
2022-11-06T05:39:53.656Z,37.70
2022-11-06T05:40:15.860Z,41.28
2022-11-06T05:40:38.058Z,35.53
2022-11-06T05:40:59.956Z,35.95
2022-11-06T05:41:21.790Z,33.65
2022-11-06T05:41:43.650Z,32.47
2022-11-06T05:42:05.739Z,38.60
2022-11-06T05:42:27.728Z,36.72
2022-11-06T05:42:49.437Z,35.65
2022-11-06T05:43:11.172Z,33.75
2022-11-06T05:43:33.122Z,34.45
2022-11-06T05:43:54.974Z,34.22
2022-11-06T05:44:16.775Z,35.67
2022-11-06T05:44:38.716Z,35.85
2022-11-06T05:45:00.563Z,37.55
2022-11-06T05:45:22.356Z,37.58
2022-11-06T05:45:44.110Z,34.17
2022-11-06T05:46:11.593Z,33.25
2022-11-06T05:46:49.360Z,36.10
2022-11-06T05:47:11.932Z,33.63
2022-11-06T05:47:34.668Z,34.58
2022-11-06T05:47:56.536Z,34.10
2022-11-06T05:48:18.457Z,33.08